Flight Track Log - Related Links

Times and Time Zones

All times are in EDT time to prevent confusion due to time zone crossing. See the CCA1546 flight status page for this flight to view local times or setup timezone preferences in your user account.

Time Position Orientation Groundspeed Altitude Reporting Facility
EDT Latitude Longitude Course Direction KTS MPH feet Rate Location/Type
Mon 02:14:00 AM 37.5927 121.0527 307° West  Level Estimated
Mon 02:15:00 AM 37.6403 120.9726 307° West  Level Estimated
Mon 02:16:00 AM 37.6878 120.8925 307° West  Level Estimated
Mon 02:17:00 AM 37.7353 120.8123 307° West  Level Estimated
Mon 02:18:00 AM 37.7828 120.7320 307° West  Level Estimated
Mon 02:19:00 AM 37.8302 120.6516 307° West  Level Estimated
Mon 02:20:00 AM 37.8775 120.5711 307° West  Level Estimated
Mon 02:21:00 AM 37.9248 120.4904 307° West  Level Estimated
Mon 02:22:00 AM 37.9720 120.4097 307° West  Level Estimated
Mon 02:23:00 AM 38.0192 120.3289 307° West  Level Estimated
Mon 02:24:00 AM 38.0663 120.2479 306° West  Level Estimated
Mon 02:25:00 AM 38.1134 120.1669 306° West  Level Estimated
Mon 02:26:00 AM 38.1604 120.0857 306° West  Level Estimated
Mon 02:27:00 AM 38.2073 120.0045 306° West  Level Estimated
Mon 02:28:00 AM 38.2542 119.9231 306° West  Level Estimated
Mon 02:29:00 AM 38.3010 119.8417 306° West  Level Estimated
Mon 02:30:00 AM 38.3478 119.7601 306° West  Level Estimated
Mon 02:31:00 AM 38.3946 119.6784 306° West  Level Estimated
Mon 02:32:00 AM 38.4412 119.5966 306° West  Level Estimated
Mon 02:33:00 AM 38.4878 119.5148 306° West  Level Estimated
Mon 02:34:00 AM 38.5344 119.4328 306° West  Level Estimated
Mon 02:35:00 AM 38.5809 119.3507 306° West  Level Estimated
Mon 02:36:00 AM 38.6273 119.2685 306° West  Level Estimated
Mon 02:37:00 AM 38.6737 119.1862 306° West  Level Estimated
Mon 02:38:00 AM 38.7200 119.1037 306° West  Level Estimated
Mon 02:39:00 AM 38.7663 119.0212 306° West  Level Estimated
Mon 02:40:00 AM 38.8125 118.9386 306° West  Level Estimated
Mon 02:41:00 AM 38.8587 118.8559 306° West  Level Estimated
Mon 02:42:00 AM 38.9048 118.7730 306° West  Level Estimated
Mon 02:43:00 AM 38.9508 118.6901 306° West  Level Estimated
Mon 02:44:00 AM 38.9968 118.6070 305° West  Level Estimated
Mon 02:45:00 AM 39.0427 118.5238 305° West  Level Estimated
Mon 02:46:00 AM 39.0885 118.4406 305° West  Level Estimated
Mon 02:47:00 AM 39.1343 118.3572 305° West  Level Estimated
Mon 02:48:00 AM 39.1801 118.2737 305° West  Level Estimated
Mon 02:49:00 AM 39.2258 118.1901 305° West  Level Estimated
Mon 02:50:00 AM 39.2714 118.1064 305° West  Level Estimated
Mon 02:51:00 AM 39.3169 118.0226 305° West  Level Estimated
Mon 02:52:00 AM 39.3624 117.9386 305° West  Level Estimated
Mon 02:53:00 AM 39.4079 117.8546 305° West  Level Estimated
Mon 02:54:00 AM 39.4533 117.7704 305° West  Level Estimated
Mon 02:55:00 AM 39.4986 117.6862 305° West  Level Estimated
Mon 02:56:00 AM 39.5438 117.6018 305° West  Level Estimated
Mon 02:57:00 AM 39.5890 117.5173 305° West  Level Estimated
Mon 02:58:00 AM 39.6342 117.4327 305° West  Level Estimated
Mon 02:59:00 AM 39.6792 117.3480 305° West  Level Estimated
Mon 03:00:00 AM 39.7242 117.2632 305° West  Level Estimated
Mon 03:01:00 AM 39.7692 117.1783 305° West  Level Estimated
Mon 03:02:00 AM 39.8141 117.0933 305° West  Level Estimated
Mon 03:03:00 AM 39.8589 117.0081 304° West  Level Estimated
Mon 03:04:00 AM 39.9036 116.9229 304° West  Level Estimated
Mon 03:05:00 AM 39.9483 116.8375 304° West  Level Estimated
Mon 03:06:00 AM 39.9930 116.7521 304° West  Level Estimated
Mon 03:07:00 AM 40.0376 116.6665 304° West  Level Estimated
Mon 03:08:00 AM 40.0801 116.5846 304° West  Level Estimated
Mon 03:09:00 AM 40.0801 116.5846 288° West  Level Estimated
Mon 03:10:00 AM 40.0801 116.5846 288° West  Level Estimated
Mon 03:11:00 AM 40.0801 116.5846 288° West  Level Estimated
Mon 03:12:00 AM 40.0801 116.5846 288° West  Level Estimated
Mon 03:13:00 AM 40.0801 116.5846 288° West  Level Estimated
Mon 03:14:00 AM 40.0801 116.5846 288° West  Level Estimated
Mon 03:15:00 AM 40.0801 116.5846 288° West  Level Estimated
Mon 03:16:00 AM 40.0801 116.5846 288° West  Level Estimated
Mon 03:17:00 AM 40.0801 116.5846 288° West  Level Estimated
Mon 03:18:00 AM 40.0801 116.5846 288° West  Level Estimated

Login

Don't have an account? Register now (free) for customized features, flight alerts, and more!